Lamont, Washington
Current Conditions -  °F | °C
As of 5:58 AM on Monday 24 Nov 2014 (Local Time) from KSKA Reporting Station
Clear Clear  
Wind Chill: 26°   Ceiling: Unl
Heat Index: 26°   Visibility: 10mi
Dew Point: 25°   Wind: 3mph
Humidity: 95%   Direction: 180°S
Pressure: 30.28"   Gusts: NA
Location:  47.2°N, 117.91°W
Report Text: KSKA 241358Z AUTO 18003KT 10SM CLR M03/M04 A3028 RMK AO2 SLP282 T10321039 RVRNO $
Loading
Personal Weather Stations






























Interactive Weather Map New forecast layout! Learn more

10-Day Weather Forecast

Advertisements
Track Severe Weather on mobile